Historyczne dane pomiarowe

Dodano dane terminowe – wersja testowa.

Dane z okresu 1951-2019

Wersja bazy: 1.34 [2019-03-16, lista zmian], aktualizacja planowana na 2019-04-15

Dane meteo z obszaru Polski uzyskane na podstawie danych udostępnionych przez Instytut Meteorologii i Gospodarki Wodnej – Państwowy Instytut Badawczy.

 

Wybierz Datę:    

       

TemperaturaWilgotnośćZachmurzenieWiatrCiśnienieWidzialnośćZjawiska
 Data    tng td wb rh cc ccl cl cm ch dir g1 g2 mslp ppp      
1999-07-19 00:00:00 6.8--- 4.0 5.583wxwx2wx--- 806.5 0.0---wx
1999-07-19 01:00:00 7.4--- -0.7 3.856wxwx0wx--- 806.1----wx
1999-07-19 02:00:00 7.5--- -0.9 3.855wxwxwx1wx--- 806.0----wx
1999-07-19 03:00:00 7.4--- -1.2 3.755wxwxwx3wx--- 805.9----wx
1999-07-19 04:00:00 7.8--- -0.5 4.156wxwxwx2wx--- 806.1----wx
1999-07-19 05:00:00 8.7--- 0.0 4.854wxwxwx2wx--- 806.2----wx
1999-07-19 06:00:00 9.7--- 1.1 5.755wxwxwx2wx--- 806.5 0.0---wx
1999-07-19 07:00:00 10.1--- 0.0 5.549wxwxwxwx2wx--- 806.5----wx
1999-07-19 08:00:00 11.0--- 4.1 7.563wxwxwxwx1wx--- 806.5----wx
1999-07-19 09:00:00 11.6--- 5.6 8.566wxwxwxwx2wx--- 806.6----wx
1999-07-19 10:00:00 11.2--- 6.1 8.570wxwxwxwx2wx--- 806.7----wx
1999-07-19 11:00:00 12.1--- 6.4 9.168wxwxwxwx1wx--- 806.6----wx
1999-07-19 12:00:00 12.0--- 6.2 9.068wxwxwx1wx--- 806.5 0.0---wx
1999-07-19 13:00:00 13.1--- 6.8 9.866wxwxwxwx1wx--- 806.5----wx
1999-07-19 14:00:00 12.1--- 6.8 9.370wxwxwxwx2wx--- 806.5----wx
1999-07-19 15:00:00 13.3--- 6.8 9.965wxwxwxwx1wx--- 806.2----wx
1999-07-19 16:00:00 12.7--- 6.4 9.465wxwxwx2wx--- 805.9----wx
1999-07-19 17:00:00 12.7--- 6.2 9.264wxwxwx1wx--- 805.8----wx
1999-07-19 18:00:00 11.1--- 5.5 8.269wxwxwx2wx--- 805.8 0.0---wx
1999-07-19 19:00:00 10.2--- 5.9 8.074wxwxwxwx2wx--- 805.8----wx
1999-07-19 20:00:00 9.7--- 6.2 7.980wxwxwxwx1wx--- 805.9----wx
1999-07-19 21:00:00 9.5--- 6.1 7.779wxwxwx3wx--- 805.7----wx
1999-07-19 22:00:00 9.2--- 6.4 7.783wxwx2wx--- 805.7----wx
1999-07-19 23:00:00 9.0--- 6.2 7.682wxwx4wx--- 805.7----wx

 

Źródłem pochodzenia danych jest Instytut Meteorologii i Gospodarki Wodnej – Państwowy Instytut Badawczy. Dane Instytutu Meteorologii i Gospodarki Wodnej – Państwowego Instytutu Badawczego zostały przetworzone.

Dane źródłowe można odnaleźć na stronie https://dane.imgw.pl